createdAt,value
2022-11-16T00:00:24.643Z,7.75
2022-11-16T00:02:54.590Z,5.88
2022-11-16T00:05:27.994Z,8.38
2022-11-16T00:07:56.689Z,4.63
2022-11-16T00:10:25.236Z,5.60
2022-11-16T00:12:53.863Z,6.25
2022-11-16T00:15:22.355Z,4.93
2022-11-16T00:17:50.770Z,4.20
2022-11-16T00:20:20.572Z,5.50
2022-11-16T00:22:48.992Z,7.55
2022-11-16T00:25:17.387Z,5.25
2022-11-16T00:27:45.857Z,6.00
2022-11-16T00:30:15.041Z,5.40
2022-11-16T00:32:43.684Z,4.45
2022-11-16T00:35:12.107Z,4.97
2022-11-16T00:37:41.896Z,4.38
2022-11-16T00:40:11.825Z,4.43
2022-11-16T00:45:09.872Z,4.63
2022-11-16T00:47:38.663Z,4.50
2022-11-16T00:50:07.634Z,3.75
2022-11-16T00:52:36.348Z,4.00
2022-11-16T00:55:07.306Z,3.60
2022-11-16T00:57:36.176Z,3.60
2022-11-16T01:00:05.840Z,4.35
2022-11-16T01:02:36.027Z,3.60
2022-11-16T01:05:04.602Z,4.28
2022-11-16T01:07:33.156Z,3.88
2022-11-16T01:10:01.648Z,4.30
2022-11-16T01:12:30.499Z,3.80
2022-11-16T01:15:01.001Z,4.07
2022-11-16T01:17:30.266Z,4.85
2022-11-16T01:19:58.860Z,4.20
2022-11-16T01:22:27.408Z,3.88
2022-11-16T01:24:55.935Z,3.80
2022-11-16T01:27:24.438Z,4.07
2022-11-16T01:29:54.923Z,4.75
2022-11-16T01:32:23.609Z,3.65
2022-11-16T01:34:52.233Z,4.03
2022-11-16T01:37:28.400Z,4.05
2022-11-16T01:39:56.953Z,4.68
2022-11-16T01:42:28.342Z,5.05
2022-11-16T01:45:06.167Z,5.40
2022-11-16T01:47:35.045Z,4.43
2022-11-16T01:50:10.060Z,4.80
2022-11-16T01:52:43.955Z,3.92
2022-11-16T01:55:13.981Z,4.97
2022-11-16T01:57:51.206Z,5.03
2022-11-16T02:00:21.256Z,4.95
2022-11-16T02:03:02.913Z,4.55
2022-11-16T02:06:00.438Z,4.93
2022-11-16T02:09:05.025Z,4.90
2022-11-16T02:12:07.129Z,5.13
2022-11-16T02:14:48.705Z,4.88
2022-11-16T02:20:25.978Z,4.78
2022-11-16T02:23:14.534Z,5.03
2022-11-16T02:25:54.901Z,5.10
2022-11-16T02:28:36.239Z,5.55
2022-11-16T02:31:09.008Z,5.00
2022-11-16T02:33:42.400Z,5.32
2022-11-16T02:36:15.942Z,5.45
2022-11-16T02:38:51.104Z,4.72
2022-11-16T02:41:23.724Z,5.50
2022-11-16T02:43:58.177Z,5.85
2022-11-16T02:46:31.933Z,5.18
2022-11-16T02:49:04.108Z,4.97
2022-11-16T02:51:36.064Z,5.50
2022-11-16T02:54:11.504Z,4.93
2022-11-16T02:56:50.919Z,4.45
2022-11-16T02:59:25.288Z,5.55
2022-11-16T03:02:02.840Z,5.53
2022-11-16T03:04:37.713Z,5.75
2022-11-16T03:07:09.907Z,4.80
2022-11-16T03:09:41.572Z,5.25
2022-11-16T03:12:14.173Z,5.43
2022-11-16T03:14:46.584Z,5.28
2022-11-16T03:17:22.604Z,5.30
2022-11-16T03:19:58.199Z,5.43
2022-11-16T03:22:32.473Z,4.90
2022-11-16T03:25:01.060Z,5.32
2022-11-16T03:27:38.131Z,5.35
2022-11-16T03:30:11.578Z,5.20
2022-11-16T03:32:52.421Z,4.90
2022-11-16T03:35:28.084Z,5.63
2022-11-16T03:37:59.782Z,6.00
2022-11-16T03:40:32.723Z,5.82
2022-11-16T03:43:03.928Z,5.55
2022-11-16T03:45:33.894Z,5.85
2022-11-16T03:48:03.776Z,5.25
2022-11-16T03:50:32.365Z,5.20
2022-11-16T03:53:02.502Z,5.40
2022-11-16T03:55:31.129Z,5.78
2022-11-16T03:58:00.396Z,5.70
2022-11-16T04:00:29.196Z,5.25
2022-11-16T04:02:57.858Z,4.60
2022-11-16T04:05:45.145Z,4.28
2022-11-16T04:08:33.995Z,4.72
2022-11-16T04:11:20.498Z,4.35
2022-11-16T04:14:09.564Z,5.05
2022-11-16T04:16:58.363Z,5.10
2022-11-16T04:19:44.579Z,5.05
2022-11-16T04:22:36.004Z,4.82
2022-11-16T04:25:12.057Z,4.55
2022-11-16T04:30:46.749Z,4.45
2022-11-16T04:33:32.818Z,3.85
2022-11-16T04:36:20.863Z,3.67
2022-11-16T04:38:51.121Z,3.47
2022-11-16T04:41:37.590Z,3.53
2022-11-16T04:44:06.283Z,4.30
2022-11-16T04:49:34.482Z,3.67
2022-11-16T04:52:03.056Z,4.35
2022-11-16T04:57:03.389Z,3.53
2022-11-16T04:59:31.933Z,3.80
2022-11-16T05:02:09.273Z,4.40
2022-11-16T05:04:56.329Z,3.45
2022-11-16T05:07:26.167Z,3.92
2022-11-16T05:12:32.601Z,4.13
2022-11-16T05:15:03.705Z,3.75
2022-11-16T05:17:34.695Z,4.05
2022-11-16T05:20:34.079Z,3.85
2022-11-16T05:23:05.616Z,3.80
2022-11-16T05:25:39.453Z,3.30
2022-11-16T05:28:12.180Z,4.05
2022-11-16T05:30:46.448Z,4.15
2022-11-16T05:33:19.200Z,3.45
2022-11-16T05:35:50.583Z,3.47
2022-11-16T05:38:19.855Z,3.30
2022-11-16T05:40:53.806Z,3.17
2022-11-16T05:43:22.726Z,3.55
2022-11-16T05:46:11.361Z,3.80
2022-11-16T05:48:40.643Z,4.32
2022-11-16T05:51:09.203Z,3.92
2022-11-16T05:53:37.653Z,3.67
2022-11-16T05:56:08.961Z,4.40
2022-11-16T05:58:40.998Z,4.20
2022-11-16T06:01:09.745Z,4.30
2022-11-16T06:03:38.734Z,4.35
2022-11-16T06:06:07.828Z,4.75
2022-11-16T06:08:37.768Z,5.03
2022-11-16T06:11:11.630Z,5.25
2022-11-16T06:13:41.139Z,5.03
2022-11-16T06:16:10.035Z,5.93
2022-11-16T06:18:39.802Z,4.97
2022-11-16T06:21:09.637Z,5.60
2022-11-16T06:23:38.557Z,5.82
2022-11-16T06:28:39.072Z,4.45
2022-11-16T06:31:07.549Z,3.92
2022-11-16T06:33:39.883Z,4.60
2022-11-16T06:36:15.054Z,3.60
2022-11-16T06:38:44.189Z,4.85
2022-11-16T06:41:13.755Z,4.75
2022-11-16T06:43:47.906Z,4.63
2022-11-16T06:46:19.032Z,4.43
2022-11-16T06:48:49.420Z,3.88
2022-11-16T06:53:48.237Z,3.75
2022-11-16T06:56:17.304Z,3.60
2022-11-16T06:58:53.603Z,3.83
2022-11-16T07:01:23.360Z,4.15
2022-11-16T07:03:57.596Z,4.05
2022-11-16T07:06:26.137Z,4.10
2022-11-16T07:08:54.862Z,3.90
2022-11-16T07:11:27.406Z,3.90
2022-11-16T07:13:57.241Z,3.60
2022-11-16T07:16:26.034Z,4.20
2022-11-16T07:18:59.242Z,4.55
2022-11-16T07:21:30.433Z,3.97
2022-11-16T07:24:00.842Z,4.07
2022-11-16T07:26:31.076Z,4.28
2022-11-16T07:29:05.831Z,9.07
2022-11-16T07:31:36.132Z,5.70
2022-11-16T07:34:30.730Z,4.93
2022-11-16T07:37:08.783Z,4.25
2022-11-16T07:39:37.271Z,5.10
2022-11-16T07:42:11.791Z,5.72
2022-11-16T07:44:52.715Z,4.68
2022-11-16T07:49:49.584Z,4.45
2022-11-16T07:52:21.144Z,4.22
2022-11-16T07:55:01.576Z,5.47
2022-11-16T07:57:32.423Z,4.85
2022-11-16T08:00:08.299Z,4.78
2022-11-16T08:02:45.252Z,5.45
2022-11-16T08:05:19.608Z,6.10
2022-11-16T08:07:50.250Z,5.25
2022-11-16T08:10:20.984Z,5.93
2022-11-16T08:12:49.764Z,5.82
2022-11-16T08:15:21.031Z,5.40
2022-11-16T08:20:18.851Z,5.20
2022-11-16T08:22:49.601Z,5.78
2022-11-16T08:25:18.363Z,4.80
2022-11-16T08:27:47.688Z,5.30
2022-11-16T08:30:17.454Z,4.65
2022-11-16T08:32:48.363Z,5.75
2022-11-16T08:35:17.757Z,7.28
2022-11-16T08:37:47.279Z,5.45
2022-11-16T08:40:16.941Z,5.00
2022-11-16T08:42:45.592Z,5.13
2022-11-16T08:45:15.289Z,5.22
2022-11-16T08:47:43.994Z,4.03
2022-11-16T08:50:13.844Z,4.53
2022-11-16T08:55:13.891Z,3.67
2022-11-16T08:57:42.740Z,4.10
2022-11-16T09:00:14.141Z,4.35
2022-11-16T09:02:42.939Z,4.13
2022-11-16T09:05:13.018Z,3.92
2022-11-16T09:07:44.076Z,3.25
2022-11-16T09:10:13.054Z,2.88
2022-11-16T09:12:41.617Z,3.17
2022-11-16T09:15:10.792Z,2.35
2022-11-16T09:17:39.237Z,2.45
2022-11-16T09:20:08.985Z,2.70
2022-11-16T09:25:09.357Z,2.50
2022-11-16T09:27:38.531Z,2.47
2022-11-16T09:30:08.965Z,2.75
2022-11-16T09:32:37.426Z,2.17
2022-11-16T09:35:06.550Z,2.50
2022-11-16T09:37:34.979Z,1.88
2022-11-16T09:40:05.269Z,1.67
2022-11-16T09:42:47.082Z,1.63
2022-11-16T09:45:23.062Z,1.27
2022-11-16T09:50:42.381Z,1.30
2022-11-16T09:53:21.666Z,1.40
2022-11-16T09:55:53.705Z,1.15
2022-11-16T09:58:27.894Z,1.20
2022-11-16T10:01:01.150Z,0.90
2022-11-16T10:03:33.338Z,1.83
2022-11-16T10:06:06.270Z,1.20
2022-11-16T10:08:44.167Z,1.00
2022-11-16T10:11:34.393Z,0.95
2022-11-16T10:14:15.089Z,0.80
2022-11-16T10:16:50.754Z,0.65
2022-11-16T10:19:31.723Z,0.80
2022-11-16T10:22:05.867Z,0.50
2022-11-16T10:24:50.885Z,0.30
2022-11-16T10:27:41.525Z,0.43
2022-11-16T10:30:13.963Z,0.20
2022-11-16T10:32:50.677Z,0.40
2022-11-16T10:35:25.210Z,0.22
2022-11-16T10:37:53.975Z,0.25
2022-11-16T10:40:25.971Z,0.35
2022-11-16T10:43:14.159Z,0.20
2022-11-16T10:45:48.365Z,0.30
2022-11-16T10:48:27.648Z,0.40
2022-11-16T10:50:56.388Z,0.32
2022-11-16T10:53:29.891Z,0.40
2022-11-16T10:56:12.328Z,0.52
2022-11-16T10:58:53.904Z,0.98
2022-11-16T11:01:34.513Z,1.05
2022-11-16T11:04:22.090Z,0.30
2022-11-16T11:06:53.012Z,0.28
2022-11-16T11:09:25.272Z,3.17
2022-11-16T11:12:27.969Z,1.98
2022-11-16T11:15:03.128Z,0.80
2022-11-16T11:17:34.067Z,3.08
2022-11-16T11:20:05.525Z,3.17
2022-11-16T11:22:42.694Z,1.42
2022-11-16T11:25:21.033Z,0.90
2022-11-16T11:27:50.606Z,1.10
2022-11-16T11:30:23.921Z,1.20
2022-11-16T11:32:53.387Z,1.35
2022-11-16T11:35:27.435Z,1.13
2022-11-16T11:38:02.176Z,0.95
2022-11-16T11:40:33.409Z,1.58
2022-11-16T11:43:03.744Z,1.20
2022-11-16T11:45:39.819Z,0.90
2022-11-16T11:48:23.443Z,0.88
2022-11-16T11:50:55.338Z,0.65
2022-11-16T11:53:40.279Z,0.80
2022-11-16T11:56:12.458Z,0.95
2022-11-16T11:58:43.054Z,1.00
2022-11-16T12:01:41.748Z,0.80
2022-11-16T12:04:39.685Z,1.00
2022-11-16T12:07:20.369Z,1.00
2022-11-16T12:09:53.494Z,0.85
2022-11-16T12:12:36.105Z,0.73
2022-11-16T12:15:27.402Z,0.77
2022-11-16T12:18:07.906Z,1.08
2022-11-16T12:20:48.232Z,0.85
2022-11-16T12:23:36.814Z,0.70
2022-11-16T12:26:13.054Z,0.90
2022-11-16T12:31:47.159Z,1.00
2022-11-16T12:34:27.511Z,0.82
2022-11-16T12:37:04.130Z,1.25
2022-11-16T12:39:36.284Z,1.58
2022-11-16T12:42:32.970Z,1.00
2022-11-16T12:45:27.628Z,6.55
2022-11-16T12:48:13.967Z,0.93
2022-11-16T12:50:55.034Z,1.80
2022-11-16T12:53:39.593Z,1.13
2022-11-16T12:56:19.992Z,0.85
2022-11-16T12:59:05.635Z,1.02
2022-11-16T13:01:37.760Z,0.80
2022-11-16T13:04:11.539Z,0.68
2022-11-16T13:06:50.378Z,0.68
2022-11-16T13:09:22.510Z,0.50
2022-11-16T13:11:54.149Z,0.73
2022-11-16T13:14:27.369Z,0.40
2022-11-16T13:16:58.479Z,0.90
2022-11-16T13:19:27.508Z,0.70
2022-11-16T13:22:03.489Z,0.80
2022-11-16T13:24:44.736Z,0.70
2022-11-16T13:27:22.749Z,0.60
2022-11-16T13:29:56.947Z,0.50
2022-11-16T13:32:29.246Z,2.10
2022-11-16T13:34:59.053Z,1.10
2022-11-16T13:40:23.926Z,2.00
2022-11-16T13:43:15.387Z,4.28
2022-11-16T13:45:52.031Z,3.15
2022-11-16T13:48:23.953Z,2.80
2022-11-16T13:50:55.368Z,1.02
2022-11-16T13:56:20.904Z,0.60
2022-11-16T13:58:55.194Z,0.82
2022-11-16T14:01:24.469Z,1.00
2022-11-16T14:04:13.658Z,1.00
2022-11-16T14:06:59.603Z,0.80
2022-11-16T14:09:49.179Z,0.80
2022-11-16T14:12:58.094Z,0.70
2022-11-16T14:15:32.141Z,1.50
2022-11-16T14:18:35.226Z,1.40
2022-11-16T14:21:13.744Z,0.70
2022-11-16T14:24:14.633Z,0.50
2022-11-16T14:26:52.006Z,0.52
2022-11-16T14:29:46.684Z,0.70
2022-11-16T14:32:22.460Z,0.40
2022-11-16T14:34:54.185Z,0.30
2022-11-16T14:37:32.338Z,0.20
2022-11-16T14:40:06.646Z,0.22
2022-11-16T14:43:09.419Z,0.50
2022-11-16T14:45:38.123Z,0.20
2022-11-16T14:48:14.826Z,0.20
2022-11-16T14:50:46.245Z,0.30
2022-11-16T14:53:18.967Z,0.20
2022-11-16T14:55:47.525Z,0.20
2022-11-16T14:58:21.034Z,0.28
2022-11-16T15:00:54.877Z,0.73
2022-11-16T15:03:24.702Z,0.20
2022-11-16T15:08:32.011Z,0.38
2022-11-16T15:11:00.860Z,0.50
2022-11-16T15:13:29.545Z,0.20
2022-11-16T15:16:12.006Z,0.35
2022-11-16T15:18:40.496Z,0.20
2022-11-16T15:21:23.204Z,0.30
2022-11-16T15:24:15.562Z,0.40
2022-11-16T15:26:40.488Z,0.30
2022-11-16T15:29:16.484Z,0.30
2022-11-16T15:34:15.170Z,0.30
2022-11-16T15:36:45.290Z,0.50
2022-11-16T15:39:17.761Z,0.55
2022-11-16T15:41:47.037Z,0.60
2022-11-16T15:44:18.243Z,0.68
2022-11-16T15:46:50.076Z,0.65
2022-11-16T15:49:30.093Z,0.50
2022-11-16T15:52:00.698Z,0.45
2022-11-16T15:54:30.887Z,0.90
2022-11-16T15:57:08.644Z,0.60
2022-11-16T15:59:38.303Z,0.55
2022-11-16T16:02:14.987Z,0.77
2022-11-16T16:04:43.953Z,0.90
2022-11-16T16:07:36.766Z,1.10
2022-11-16T16:10:25.669Z,1.65
2022-11-16T16:12:55.830Z,1.42
2022-11-16T16:15:26.220Z,1.45
2022-11-16T16:17:55.449Z,1.40
2022-11-16T16:20:26.334Z,1.00
2022-11-16T16:23:07.453Z,0.90
2022-11-16T16:25:37.156Z,1.25
2022-11-16T16:28:06.154Z,1.40
2022-11-16T16:30:35.759Z,1.50
2022-11-16T16:33:04.836Z,1.20
2022-11-16T16:35:33.524Z,1.30
2022-11-16T16:38:03.510Z,1.40
2022-11-16T16:43:00.439Z,1.40
2022-11-16T16:45:37.027Z,1.80
2022-11-16T16:48:06.013Z,2.00
2022-11-16T16:50:34.683Z,2.00
2022-11-16T16:53:04.915Z,2.10
2022-11-16T16:55:37.188Z,1.92
2022-11-16T16:58:06.493Z,2.47
2022-11-16T17:00:35.186Z,2.42
2022-11-16T17:03:04.304Z,2.17
2022-11-16T17:05:33.976Z,2.33
2022-11-16T17:08:04.165Z,1.98
2022-11-16T17:10:33.020Z,2.33
2022-11-16T17:13:03.169Z,2.22
2022-11-16T17:15:31.836Z,2.20
2022-11-16T17:18:00.915Z,2.42
2022-11-16T17:20:29.433Z,2.65
2022-11-16T17:22:58.014Z,2.60
2022-11-16T17:25:27.928Z,2.85
2022-11-16T17:30:24.770Z,2.58
2022-11-16T17:32:53.377Z,3.20
2022-11-16T17:35:21.854Z,3.28
2022-11-16T17:37:50.484Z,3.50
2022-11-16T17:40:19.190Z,3.20
2022-11-16T17:42:49.047Z,2.92
2022-11-16T17:45:17.671Z,2.90
2022-11-16T17:47:46.215Z,3.15
2022-11-16T17:50:14.931Z,3.10
2022-11-16T17:52:43.433Z,2.55
2022-11-16T17:55:11.974Z,2.50
2022-11-16T17:57:40.489Z,2.63
2022-11-16T18:00:11.970Z,2.60
2022-11-16T18:02:40.475Z,3.10
2022-11-16T18:05:09.838Z,2.60
2022-11-16T18:07:40.211Z,2.60
2022-11-16T18:10:11.102Z,2.33
2022-11-16T18:12:42.221Z,2.72
2022-11-16T18:15:28.168Z,3.80
2022-11-16T18:17:57.491Z,2.90
2022-11-16T18:20:27.598Z,5.03
2022-11-16T18:22:56.995Z,4.80
2022-11-16T18:25:25.743Z,3.05
2022-11-16T18:27:54.674Z,3.63
2022-11-16T18:30:25.129Z,3.33
2022-11-16T18:32:53.596Z,3.05
2022-11-16T18:35:22.052Z,3.22
2022-11-16T18:37:50.841Z,3.53
2022-11-16T18:40:19.542Z,3.33
2022-11-16T18:42:48.186Z,3.15
2022-11-16T18:45:16.888Z,3.20
2022-11-16T18:47:46.999Z,3.38
2022-11-16T18:52:52.593Z,3.38
2022-11-16T18:55:21.108Z,3.28
2022-11-16T18:57:49.650Z,3.00
2022-11-16T19:00:20.221Z,3.45
2022-11-16T19:02:50.392Z,3.83
2022-11-16T19:07:47.266Z,3.17
2022-11-16T19:10:15.942Z,3.03
2022-11-16T19:12:44.367Z,3.13
2022-11-16T19:15:12.928Z,2.92
2022-11-16T19:17:59.606Z,2.70
2022-11-16T19:20:31.255Z,2.97
2022-11-16T19:22:59.924Z,2.92
2022-11-16T19:25:28.554Z,2.97
2022-11-16T19:27:57.121Z,2.33
2022-11-16T19:30:25.603Z,2.72
2022-11-16T19:32:57.251Z,2.63
2022-11-16T19:35:26.306Z,2.83
2022-11-16T19:37:56.114Z,3.08
2022-11-16T19:40:25.278Z,3.20
2022-11-16T19:42:53.991Z,3.58
2022-11-16T19:45:22.540Z,3.10
2022-11-16T19:47:51.044Z,2.95
2022-11-16T19:50:19.517Z,3.25
2022-11-16T19:52:48.028Z,3.13
2022-11-16T19:55:17.872Z,3.30
2022-11-16T19:57:46.491Z,3.80
2022-11-16T20:00:16.512Z,3.35
2022-11-16T20:02:44.928Z,3.85
2022-11-16T20:05:13.369Z,3.08
2022-11-16T20:07:42.429Z,3.72
2022-11-16T20:10:11.012Z,3.20
2022-11-16T20:12:41.083Z,4.35
2022-11-16T20:20:07.371Z,2.78
2022-11-16T20:22:35.811Z,2.95
2022-11-16T20:25:04.412Z,2.97
2022-11-16T20:27:32.823Z,3.20
2022-11-16T20:30:07.960Z,3.58
2022-11-16T20:32:37.849Z,3.53
2022-11-16T20:35:06.701Z,4.32
2022-11-16T20:37:35.151Z,5.22
2022-11-16T20:40:03.644Z,5.28
2022-11-16T20:42:32.107Z,3.78
2022-11-16T20:45:02.263Z,3.95
2022-11-16T20:49:59.035Z,4.50
2022-11-16T20:52:27.543Z,3.92
2022-11-16T20:54:55.988Z,3.35
2022-11-16T20:57:24.403Z,3.25
2022-11-16T20:59:52.848Z,3.17
2022-11-16T21:02:22.640Z,2.92
2022-11-16T21:04:54.789Z,3.20
2022-11-16T21:07:26.076Z,2.42
2022-11-16T21:10:11.999Z,2.70
2022-11-16T21:13:00.488Z,4.10
2022-11-16T21:15:28.943Z,4.30
2022-11-16T21:17:58.757Z,4.60
2022-11-16T21:20:28.320Z,6.43
2022-11-16T21:22:57.364Z,4.80
2022-11-16T21:25:25.809Z,5.03
2022-11-16T21:27:55.246Z,4.03
2022-11-16T21:30:23.752Z,3.53
2022-11-16T21:32:52.193Z,3.72
2022-11-16T21:35:23.489Z,3.88
2022-11-16T21:37:51.951Z,3.88
2022-11-16T21:40:20.409Z,4.10
2022-11-16T21:42:49.973Z,4.45
2022-11-16T21:45:18.515Z,4.65
2022-11-16T21:47:47.167Z,5.72
2022-11-16T21:50:32.156Z,5.15
2022-11-16T21:53:02.550Z,4.18
2022-11-16T21:57:59.717Z,4.20
2022-11-16T22:00:28.764Z,4.05
2022-11-16T22:02:57.216Z,3.50
2022-11-16T22:05:43.109Z,4.10
2022-11-16T22:08:13.131Z,4.05
2022-11-16T22:13:09.844Z,3.20
2022-11-16T22:15:38.379Z,3.30
2022-11-16T22:18:07.008Z,3.05
2022-11-16T22:20:35.470Z,3.22
2022-11-16T22:23:03.902Z,3.28
2022-11-16T22:25:33.919Z,4.85
2022-11-16T22:30:52.237Z,5.55
2022-11-16T22:35:49.123Z,3.63
2022-11-16T22:38:17.539Z,3.80
2022-11-16T22:40:51.881Z,3.38
2022-11-16T22:43:21.655Z,4.97
2022-11-16T22:45:50.208Z,4.57
2022-11-16T22:48:18.855Z,11.32
2022-11-16T22:50:47.297Z,6.40
2022-11-16T22:53:15.882Z,5.93
2022-11-16T22:55:44.908Z,24.15
2022-11-16T22:58:14.706Z,4.95
2022-11-16T23:00:43.170Z,5.03
2022-11-16T23:03:11.655Z,5.90
2022-11-16T23:05:40.189Z,4.63
2022-11-16T23:08:08.613Z,4.22
2022-11-16T23:10:57.208Z,3.85
2022-11-16T23:16:12.782Z,2.97
2022-11-16T23:18:41.190Z,3.50
2022-11-16T23:21:27.501Z,4.00
2022-11-16T23:24:13.380Z,4.55
2022-11-16T23:26:59.399Z,3.92
2022-11-16T23:29:29.226Z,3.90
2022-11-16T23:31:57.772Z,4.30
2022-11-16T23:34:26.235Z,3.78
2022-11-16T23:36:54.621Z,4.55
2022-11-16T23:39:23.007Z,4.07
2022-11-16T23:42:08.794Z,4.95
2022-11-16T23:44:38.674Z,4.28
2022-11-16T23:47:07.143Z,6.10
2022-11-16T23:49:35.614Z,3.33
2022-11-16T23:52:04.125Z,7.32
2022-11-16T23:54:32.591Z,4.10
2022-11-16T23:57:01.492Z,3.58
2022-11-16T23:59:29.938Z,3.72
